createdAt,value
2023-03-22T00:00:41.366Z,98887.09
2023-03-22T00:03:12.869Z,98884.66
2023-03-22T00:05:41.785Z,98895.41
2023-03-22T00:08:11.273Z,98886.56
2023-03-22T00:10:42.625Z,98882.78
2023-03-22T00:13:13.049Z,98880.88
2023-03-22T00:15:41.260Z,98884.00
2023-03-22T00:18:09.687Z,98886.81
2023-03-22T00:20:39.693Z,98883.50
2023-03-22T00:23:09.334Z,98885.13
2023-03-22T00:25:37.703Z,98876.06
2023-03-22T00:28:08.058Z,98870.63
2023-03-22T00:30:36.819Z,98876.16
2023-03-22T00:33:06.982Z,98875.88
2023-03-22T00:35:35.485Z,98871.81
2023-03-22T00:38:14.496Z,98862.59
2023-03-22T00:40:44.098Z,98860.97
2023-03-22T00:43:15.876Z,98849.47
2023-03-22T00:45:44.769Z,98852.00
2023-03-22T00:48:13.681Z,98848.06
2023-03-22T00:50:42.525Z,98846.63
2023-03-22T00:53:10.864Z,98848.19
2023-03-22T00:55:40.610Z,98843.13
2023-03-22T00:58:08.822Z,98836.44
2023-03-22T01:00:38.823Z,98846.13
2023-03-22T01:03:07.756Z,98847.69
2023-03-22T01:05:36.804Z,98843.75
2023-03-22T01:08:08.640Z,98848.50
2023-03-22T01:10:37.753Z,98840.44
2023-03-22T01:13:06.595Z,98841.47
2023-03-22T01:15:35.672Z,98843.25
2023-03-22T01:18:07.732Z,98845.72
2023-03-22T01:20:36.638Z,98840.16
2023-03-22T01:23:05.100Z,98840.72
2023-03-22T01:25:33.598Z,98845.72
2023-03-22T01:28:02.963Z,98839.19
2023-03-22T01:30:31.690Z,98837.97
2023-03-22T01:33:00.355Z,98836.00
2023-03-22T01:35:30.903Z,98835.69
2023-03-22T01:37:59.535Z,98829.31
2023-03-22T01:40:29.940Z,98830.41
2023-03-22T01:42:58.875Z,98828.00
2023-03-22T01:45:46.405Z,98830.41
2023-03-22T01:48:26.113Z,98824.09
2023-03-22T01:51:11.998Z,98817.66
2023-03-22T01:53:44.541Z,98825.38
2023-03-22T01:56:14.057Z,98819.56
2023-03-22T01:58:43.954Z,98816.97
2023-03-22T02:01:13.127Z,98815.38
2023-03-22T02:03:49.651Z,98814.53
2023-03-22T02:06:20.070Z,98804.19
2023-03-22T02:08:48.504Z,98808.69
2023-03-22T02:11:19.905Z,98800.84
2023-03-22T02:14:10.002Z,98800.59
2023-03-22T02:16:50.183Z,98798.50
2023-03-22T02:19:52.154Z,98793.69
2023-03-22T02:23:01.198Z,98786.50
2023-03-22T02:26:04.904Z,98783.44
2023-03-22T02:28:46.365Z,98786.44
2023-03-22T02:31:48.233Z,98784.28
2023-03-22T02:34:50.875Z,98781.72
2023-03-22T02:37:55.696Z,98781.53
2023-03-22T02:40:34.427Z,98783.63
2023-03-22T02:43:14.395Z,98788.22
2023-03-22T02:45:48.454Z,98786.34
2023-03-22T02:48:20.525Z,98783.75
2023-03-22T02:50:55.045Z,98782.31
2023-03-22T02:53:29.462Z,98782.06
2023-03-22T02:56:02.750Z,98786.94
2023-03-22T02:58:37.390Z,98782.91
2023-03-22T03:01:10.358Z,98790.91
2023-03-22T03:03:41.052Z,98791.41
2023-03-22T03:06:14.789Z,98787.03
2023-03-22T03:08:44.013Z,98778.84
2023-03-22T03:11:15.215Z,98774.59
2023-03-22T03:13:43.596Z,98775.66
2023-03-22T03:16:17.722Z,98771.03
2023-03-22T03:18:52.668Z,98766.88
2023-03-22T03:21:32.904Z,98756.44
2023-03-22T03:24:15.755Z,98759.44
2023-03-22T03:26:57.693Z,98758.88
2023-03-22T03:29:33.975Z,98760.81
2023-03-22T03:32:10.390Z,98758.94
2023-03-22T03:34:49.756Z,98760.94
2023-03-22T03:37:25.089Z,98759.13
2023-03-22T03:39:58.648Z,98762.34
2023-03-22T03:42:31.296Z,98759.31
2023-03-22T03:45:00.736Z,98757.13
2023-03-22T03:47:30.552Z,98761.41
2023-03-22T03:49:59.132Z,98761.78
2023-03-22T03:52:27.720Z,98751.16
2023-03-22T03:54:56.392Z,98749.09
2023-03-22T03:57:24.860Z,98752.75
2023-03-22T03:59:54.518Z,98757.31
2023-03-22T04:02:23.094Z,98750.84
2023-03-22T04:04:51.370Z,98751.91
2023-03-22T04:07:20.050Z,98761.13
2023-03-22T04:09:48.478Z,98752.56
2023-03-22T04:12:16.851Z,98745.50
2023-03-22T04:14:45.048Z,98746.34
2023-03-22T04:17:16.031Z,98748.56
2023-03-22T04:19:44.850Z,98744.25
2023-03-22T04:22:14.871Z,98740.53
2023-03-22T04:24:43.497Z,98741.16
2023-03-22T04:27:12.034Z,98729.00
2023-03-22T04:29:40.738Z,98735.59
2023-03-22T04:32:09.114Z,98736.84
2023-03-22T04:34:38.926Z,98742.41
2023-03-22T04:37:08.933Z,98735.50
2023-03-22T04:39:37.204Z,98731.72
2023-03-22T04:42:05.833Z,98729.59
2023-03-22T04:44:34.349Z,98733.06
2023-03-22T04:47:02.780Z,98726.28
2023-03-22T04:49:31.592Z,98724.31
2023-03-22T04:52:01.558Z,98724.66
2023-03-22T04:54:31.537Z,98722.97
2023-03-22T04:57:01.343Z,98725.19
2023-03-22T04:59:31.182Z,98718.63
2023-03-22T05:01:59.730Z,98722.34
2023-03-22T05:04:28.924Z,98726.53
2023-03-22T05:06:57.132Z,98734.59
2023-03-22T05:09:28.032Z,98729.31
2023-03-22T05:11:56.580Z,98722.81
2023-03-22T05:14:25.642Z,98730.00
2023-03-22T05:16:53.922Z,98722.00
2023-03-22T05:19:24.719Z,98724.53
2023-03-22T05:22:02.021Z,98727.28
2023-03-22T05:24:32.493Z,98724.97
2023-03-22T05:27:01.240Z,98727.09
2023-03-22T05:29:37.179Z,98720.63
2023-03-22T05:32:05.847Z,98729.28
2023-03-22T05:34:37.008Z,98725.66
2023-03-22T05:37:06.951Z,98727.81
2023-03-22T05:39:37.186Z,98728.66
2023-03-22T05:42:05.736Z,98724.88
2023-03-22T05:44:34.220Z,98735.09
2023-03-22T05:47:02.591Z,98725.16
2023-03-22T05:49:31.995Z,98725.34
2023-03-22T05:52:00.544Z,98728.84
2023-03-22T05:54:28.851Z,98721.94
2023-03-22T05:56:58.668Z,98730.16
2023-03-22T05:59:27.076Z,98715.06
2023-03-22T06:01:55.694Z,98724.41
2023-03-22T06:04:23.838Z,98718.13
2023-03-22T06:06:53.951Z,98719.91
2023-03-22T06:09:23.380Z,98713.59
2023-03-22T06:11:51.637Z,98716.34
2023-03-22T06:14:21.270Z,98715.66
2023-03-22T06:16:49.328Z,98709.91
2023-03-22T06:19:17.893Z,98715.03
2023-03-22T06:21:49.084Z,98707.34
2023-03-22T06:24:17.653Z,98724.03
2023-03-22T06:26:46.276Z,98722.94
2023-03-22T06:29:14.772Z,98726.16
2023-03-22T06:31:44.230Z,98718.94
2023-03-22T06:34:12.568Z,98726.75
2023-03-22T06:36:42.493Z,98731.56
2023-03-22T06:39:11.033Z,98732.63
2023-03-22T06:41:39.460Z,98734.31
2023-03-22T06:44:07.599Z,98737.41
2023-03-22T06:46:35.688Z,98734.72
2023-03-22T06:49:05.599Z,98731.97
2023-03-22T06:51:33.830Z,98739.63
2023-03-22T06:54:02.481Z,98738.03
2023-03-22T06:56:31.245Z,98739.72
2023-03-22T06:58:59.661Z,98739.56
2023-03-22T07:01:27.942Z,98740.75
2023-03-22T07:03:56.138Z,98740.97
2023-03-22T07:06:27.463Z,98741.34
2023-03-22T07:08:58.124Z,98736.00
2023-03-22T07:11:27.467Z,98737.13
2023-03-22T07:13:56.162Z,98736.06
2023-03-22T07:16:24.927Z,98737.88
2023-03-22T07:18:53.529Z,98740.09
2023-03-22T07:21:22.612Z,98748.28
2023-03-22T07:23:52.558Z,98734.88
2023-03-22T07:26:21.444Z,98724.41
2023-03-22T07:28:49.617Z,98726.66
2023-03-22T07:31:18.785Z,98721.31
2023-03-22T07:33:48.394Z,98718.41
2023-03-22T07:36:17.232Z,98724.94
2023-03-22T07:38:45.742Z,98723.09
2023-03-22T07:41:15.623Z,98725.00
2023-03-22T07:43:53.358Z,98717.31
2023-03-22T07:46:24.962Z,98714.47
2023-03-22T07:48:53.444Z,98705.19
2023-03-22T07:51:21.766Z,98701.84
2023-03-22T07:53:50.209Z,98690.19
2023-03-22T07:56:20.070Z,98683.06
2023-03-22T07:58:48.407Z,98671.22
2023-03-22T08:01:16.630Z,98675.34
2023-03-22T08:03:45.711Z,98671.00
2023-03-22T08:06:19.042Z,98670.84
2023-03-22T08:08:47.578Z,98660.59
2023-03-22T08:11:15.806Z,98671.06
2023-03-22T08:13:46.194Z,98659.50
2023-03-22T08:16:15.914Z,98659.56
2023-03-22T08:18:45.388Z,98651.25
2023-03-22T08:21:16.495Z,98652.50
2023-03-22T08:23:48.695Z,98652.19
2023-03-22T08:26:18.194Z,98645.09
2023-03-22T08:28:49.280Z,98630.66
2023-03-22T08:31:18.888Z,98617.66
2023-03-22T08:33:48.261Z,98612.50
2023-03-22T08:36:19.915Z,98612.06
2023-03-22T08:38:48.629Z,98612.94
2023-03-22T08:41:17.453Z,98602.66
2023-03-22T08:43:45.816Z,98587.81
2023-03-22T08:46:15.580Z,98590.59
2023-03-22T08:48:50.588Z,98598.06
2023-03-22T08:51:20.915Z,98583.13
2023-03-22T08:53:50.542Z,98590.97
2023-03-22T08:56:20.336Z,98588.91
2023-03-22T08:58:49.023Z,98579.03
2023-03-22T09:01:21.269Z,98570.34
2023-03-22T09:03:51.366Z,98570.09
2023-03-22T09:06:20.055Z,98567.78
2023-03-22T09:08:52.227Z,98563.88
2023-03-22T09:11:21.326Z,98563.69
2023-03-22T09:13:50.274Z,98554.44
2023-03-22T09:16:20.734Z,98556.53
2023-03-22T09:18:49.453Z,98549.09
2023-03-22T09:21:17.956Z,98550.16
2023-03-22T09:23:47.933Z,98548.47
2023-03-22T09:26:17.080Z,98560.59
2023-03-22T09:28:47.006Z,98534.88
2023-03-22T09:31:15.572Z,98530.75
2023-03-22T09:33:45.954Z,98533.56
2023-03-22T09:36:16.280Z,98526.09
2023-03-22T09:38:45.686Z,98530.00
2023-03-22T09:41:19.631Z,98526.13
2023-03-22T09:43:52.475Z,98526.78
2023-03-22T09:46:29.030Z,98516.22
2023-03-22T09:49:01.782Z,98520.19
2023-03-22T09:51:38.773Z,98506.91
2023-03-22T09:54:16.402Z,98520.50
2023-03-22T09:56:48.952Z,98520.94
2023-03-22T09:59:27.334Z,98521.47
2023-03-22T10:02:04.991Z,98509.59
2023-03-22T10:05:04.334Z,98507.75
2023-03-22T10:07:42.801Z,98506.44
2023-03-22T10:10:19.048Z,98512.41
2023-03-22T10:12:57.769Z,98498.19
2023-03-22T10:15:30.983Z,98494.25
2023-03-22T10:18:02.889Z,98501.38
2023-03-22T10:20:43.645Z,98521.16
2023-03-22T10:23:16.363Z,98505.41
2023-03-22T10:25:46.106Z,98512.56
2023-03-22T10:28:18.247Z,98510.91
2023-03-22T10:30:51.157Z,98520.66
2023-03-22T10:33:30.908Z,98519.72
2023-03-22T10:36:03.003Z,98504.41
2023-03-22T10:38:33.136Z,98520.84
2023-03-22T10:41:03.374Z,98517.16
2023-03-22T10:43:35.361Z,98524.72
2023-03-22T10:46:07.218Z,98517.72
2023-03-22T10:48:40.255Z,98521.22
2023-03-22T10:51:22.518Z,98526.53
2023-03-22T10:53:55.227Z,98527.06
2023-03-22T10:56:24.139Z,98525.25
2023-03-22T10:58:53.298Z,98523.44
2023-03-22T11:01:28.744Z,98523.75
2023-03-22T11:04:00.653Z,98524.72
2023-03-22T11:06:37.146Z,98534.38
2023-03-22T11:09:14.829Z,98516.72
2023-03-22T11:11:58.834Z,98539.41
2023-03-22T11:14:32.637Z,98519.47
2023-03-22T11:17:06.497Z,98497.63
2023-03-22T11:19:37.383Z,98492.84
2023-03-22T11:22:20.402Z,98491.00
2023-03-22T11:24:49.107Z,98488.72
2023-03-22T11:27:21.651Z,98496.41
2023-03-22T11:29:52.345Z,98495.91
2023-03-22T11:32:28.076Z,98496.97
2023-03-22T11:35:05.307Z,98490.44
2023-03-22T11:37:43.112Z,98486.50
2023-03-22T11:40:17.066Z,98469.66
2023-03-22T11:42:46.311Z,98504.16
2023-03-22T11:45:18.134Z,98476.44
2023-03-22T11:47:47.008Z,98475.16
2023-03-22T11:50:28.445Z,98467.50
2023-03-22T11:52:59.358Z,98488.78
2023-03-22T11:55:27.880Z,98458.13
2023-03-22T11:57:58.387Z,98466.50
2023-03-22T12:00:30.488Z,98467.75
2023-03-22T12:03:03.036Z,98453.00
2023-03-22T12:05:34.258Z,98457.41
2023-03-22T12:08:10.991Z,98450.78
2023-03-22T12:10:42.666Z,98466.81
2023-03-22T12:13:20.925Z,98458.53
2023-03-22T12:15:51.830Z,98475.63
2023-03-22T12:18:28.107Z,98459.72
2023-03-22T12:21:02.032Z,98447.47
2023-03-22T12:23:35.188Z,98469.16
2023-03-22T12:26:09.430Z,98446.63
2023-03-22T12:28:42.846Z,98449.78
2023-03-22T12:31:17.304Z,98439.16
2023-03-22T12:33:49.182Z,98442.47
2023-03-22T12:36:23.426Z,98442.22
2023-03-22T12:38:57.402Z,98445.97
2023-03-22T12:41:31.078Z,98445.19
2023-03-22T12:44:03.905Z,98441.88
2023-03-22T12:46:37.477Z,98422.91
2023-03-22T12:49:20.197Z,98431.50
2023-03-22T12:51:50.374Z,98413.63
2023-03-22T12:54:24.822Z,98417.81
2023-03-22T12:56:56.722Z,98418.38
2023-03-22T12:59:30.288Z,98413.97
2023-03-22T13:02:01.734Z,98409.59
2023-03-22T13:04:51.107Z,98416.22
2023-03-22T13:07:39.032Z,98404.84
2023-03-22T13:10:42.064Z,98401.00
2023-03-22T13:13:16.520Z,98398.59
2023-03-22T13:16:01.402Z,98394.56
2023-03-22T13:18:42.590Z,98393.91
2023-03-22T13:21:14.474Z,98387.03
2023-03-22T13:24:01.034Z,98379.44
2023-03-22T13:26:38.680Z,98373.78
2023-03-22T13:29:18.800Z,98390.88
2023-03-22T13:31:55.353Z,98380.84
2023-03-22T13:34:33.523Z,98373.06
2023-03-22T13:37:03.810Z,98369.97
2023-03-22T13:39:34.870Z,98366.84
2023-03-22T13:42:19.244Z,98368.13
2023-03-22T13:44:58.685Z,98371.44
2023-03-22T13:47:37.937Z,98364.34
2023-03-22T13:50:16.615Z,98362.44
2023-03-22T13:52:53.238Z,98345.59
2023-03-22T13:55:42.721Z,98347.97
2023-03-22T13:58:14.141Z,98363.31
2023-03-22T14:00:56.392Z,98349.56
2023-03-22T14:03:30.404Z,98350.75
2023-03-22T14:06:17.224Z,98351.84
2023-03-22T14:08:48.085Z,98361.28
2023-03-22T14:11:26.353Z,98348.84
2023-03-22T14:14:02.906Z,98353.66
2023-03-22T14:16:40.570Z,98358.72
2023-03-22T14:19:15.145Z,98358.75
